sensor_id;sensor_type;location;lat;lon;timestamp;P1;durP1;ratioP1;P2;durP2;ratioP2
25137;SDS011;13112;50.986;4.354;2022-07-25T00:00:29;17.40;;;16.17;;
25137;SDS011;13112;50.986;4.354;2022-07-25T00:02:55;16.92;;;15.73;;
25137;SDS011;13112;50.986;4.354;2022-07-25T00:05:21;16.88;;;15.68;;
25137;SDS011;13112;50.986;4.354;2022-07-25T00:07:47;17.00;;;15.77;;
25137;SDS011;13112;50.986;4.354;2022-07-25T00:10:14;16.98;;;15.85;;
25137;SDS011;13112;50.986;4.354;2022-07-25T00:12:40;17.50;;;16.40;;
25137;SDS011;13112;50.986;4.354;2022-07-25T00:15:06;17.55;;;16.20;;
25137;SDS011;13112;50.986;4.354;2022-07-25T00:17:33;16.92;;;15.70;;
25137;SDS011;13112;50.986;4.354;2022-07-25T00:19:58;17.48;;;16.20;;
25137;SDS011;13112;50.986;4.354;2022-07-25T00:22:25;17.02;;;15.82;;
25137;SDS011;13112;50.986;4.354;2022-07-25T00:24:50;17.33;;;16.13;;
25137;SDS011;13112;50.986;4.354;2022-07-25T00:27:16;17.42;;;16.33;;
25137;SDS011;13112;50.986;4.354;2022-07-25T00:29:41;17.77;;;16.33;;
25137;SDS011;13112;50.986;4.354;2022-07-25T00:32:07;17.80;;;16.20;;
25137;SDS011;13112;50.986;4.354;2022-07-25T00:34:33;18.33;;;16.77;;
25137;SDS011;13112;50.986;4.354;2022-07-25T00:36:58;17.85;;;16.60;;
25137;SDS011;13112;50.986;4.354;2022-07-25T00:39:24;17.52;;;16.27;;
25137;SDS011;13112;50.986;4.354;2022-07-25T00:41:50;17.65;;;16.45;;
25137;SDS011;13112;50.986;4.354;2022-07-25T00:44:23;17.58;;;16.27;;
25137;SDS011;13112;50.986;4.354;2022-07-25T00:46:49;17.40;;;16.20;;
25137;SDS011;13112;50.986;4.354;2022-07-25T00:49:15;18.00;;;16.40;;
25137;SDS011;13112;50.986;4.354;2022-07-25T00:51:43;18.15;;;16.65;;
25137;SDS011;13112;50.986;4.354;2022-07-25T00:54:10;17.95;;;16.35;;
25137;SDS011;13112;50.986;4.354;2022-07-25T00:56:36;18.35;;;16.85;;
25137;SDS011;13112;50.986;4.354;2022-07-25T00:59:02;18.48;;;17.17;;
25137;SDS011;13112;50.986;4.354;2022-07-25T01:01:28;18.17;;;16.77;;
25137;SDS011;13112;50.986;4.354;2022-07-25T01:03:54;18.38;;;17.00;;
25137;SDS011;13112;50.986;4.354;2022-07-25T01:06:20;18.45;;;17.08;;
25137;SDS011;13112;50.986;4.354;2022-07-25T01:08:46;18.25;;;16.80;;
25137;SDS011;13112;50.986;4.354;2022-07-25T01:11:12;17.90;;;16.67;;
25137;SDS011;13112;50.986;4.354;2022-07-25T01:13:38;18.75;;;17.35;;
25137;SDS011;13112;50.986;4.354;2022-07-25T01:16:04;19.10;;;17.70;;
25137;SDS011;13112;50.986;4.354;2022-07-25T01:18:30;18.38;;;17.10;;
25137;SDS011;13112;50.986;4.354;2022-07-25T01:20:56;18.50;;;17.30;;
25137;SDS011;13112;50.986;4.354;2022-07-25T01:23:21;18.42;;;16.83;;
25137;SDS011;13112;50.986;4.354;2022-07-25T01:25:47;19.30;;;17.70;;
25137;SDS011;13112;50.986;4.354;2022-07-25T01:28:13;18.88;;;17.50;;
25137;SDS011;13112;50.986;4.354;2022-07-25T01:30:38;18.83;;;17.42;;
25137;SDS011;13112;50.986;4.354;2022-07-25T01:33:04;18.65;;;17.20;;
25137;SDS011;13112;50.986;4.354;2022-07-25T01:35:30;18.48;;;17.25;;
25137;SDS011;13112;50.986;4.354;2022-07-25T01:37:55;18.73;;;17.27;;
25137;SDS011;13112;50.986;4.354;2022-07-25T01:40:21;18.85;;;17.50;;
25137;SDS011;13112;50.986;4.354;2022-07-25T01:42:47;18.70;;;17.38;;
25137;SDS011;13112;50.986;4.354;2022-07-25T01:45:12;18.92;;;17.52;;
25137;SDS011;13112;50.986;4.354;2022-07-25T01:47:38;18.88;;;17.40;;
25137;SDS011;13112;50.986;4.354;2022-07-25T01:50:04;18.65;;;17.13;;
25137;SDS011;13112;50.986;4.354;2022-07-25T01:52:30;18.80;;;17.48;;
25137;SDS011;13112;50.986;4.354;2022-07-25T01:54:56;19.02;;;17.20;;
25137;SDS011;13112;50.986;4.354;2022-07-25T01:57:22;18.42;;;17.23;;
25137;SDS011;13112;50.986;4.354;2022-07-25T01:59:48;19.42;;;17.83;;
25137;SDS011;13112;50.986;4.354;2022-07-25T02:02:13;19.02;;;17.52;;
25137;SDS011;13112;50.986;4.354;2022-07-25T02:04:39;19.08;;;17.67;;
25137;SDS011;13112;50.986;4.354;2022-07-25T02:07:05;19.02;;;17.73;;
25137;SDS011;13112;50.986;4.354;2022-07-25T02:09:30;19.23;;;17.63;;
25137;SDS011;13112;50.986;4.354;2022-07-25T02:11:56;20.00;;;18.30;;
25137;SDS011;13112;50.986;4.354;2022-07-25T02:14:22;18.33;;;17.02;;
25137;SDS011;13112;50.986;4.354;2022-07-25T02:16:48;19.05;;;17.52;;
25137;SDS011;13112;50.986;4.354;2022-07-25T02:19:13;19.23;;;17.85;;
25137;SDS011;13112;50.986;4.354;2022-07-25T02:21:39;19.63;;;18.13;;
25137;SDS011;13112;50.986;4.354;2022-07-25T02:24:05;20.15;;;18.70;;
25137;SDS011;13112;50.986;4.354;2022-07-25T02:26:31;19.95;;;18.40;;
25137;SDS011;13112;50.986;4.354;2022-07-25T02:28:57;19.45;;;18.02;;
25137;SDS011;13112;50.986;4.354;2022-07-25T02:31:23;19.42;;;17.95;;
25137;SDS011;13112;50.986;4.354;2022-07-25T02:33:48;20.40;;;18.92;;
25137;SDS011;13112;50.986;4.354;2022-07-25T02:36:14;19.48;;;17.90;;
25137;SDS011;13112;50.986;4.354;2022-07-25T02:38:40;19.17;;;17.77;;
25137;SDS011;13112;50.986;4.354;2022-07-25T02:41:05;20.05;;;18.30;;
25137;SDS011;13112;50.986;4.354;2022-07-25T02:43:31;19.58;;;18.17;;
25137;SDS011;13112;50.986;4.354;2022-07-25T02:45:57;19.77;;;18.38;;
25137;SDS011;13112;50.986;4.354;2022-07-25T02:48:23;20.20;;;18.70;;
25137;SDS011;13112;50.986;4.354;2022-07-25T02:50:48;20.17;;;18.63;;
25137;SDS011;13112;50.986;4.354;2022-07-25T02:53:14;20.08;;;18.33;;
25137;SDS011;13112;50.986;4.354;2022-07-25T02:55:39;20.75;;;19.05;;
25137;SDS011;13112;50.986;4.354;2022-07-25T02:58:05;19.95;;;18.48;;
25137;SDS011;13112;50.986;4.354;2022-07-25T03:00:31;19.67;;;18.38;;
25137;SDS011;13112;50.986;4.354;2022-07-25T03:02:57;20.05;;;18.65;;
25137;SDS011;13112;50.986;4.354;2022-07-25T03:05:22;19.40;;;18.00;;
25137;SDS011;13112;50.986;4.354;2022-07-25T03:07:48;19.88;;;18.42;;
25137;SDS011;13112;50.986;4.354;2022-07-25T03:10:14;20.13;;;18.52;;
25137;SDS011;13112;50.986;4.354;2022-07-25T03:12:40;19.83;;;18.40;;
25137;SDS011;13112;50.986;4.354;2022-07-25T03:15:07;19.85;;;18.48;;
25137;SDS011;13112;50.986;4.354;2022-07-25T03:17:34;19.13;;;17.80;;
25137;SDS011;13112;50.986;4.354;2022-07-25T03:19:59;19.95;;;18.55;;
25137;SDS011;13112;50.986;4.354;2022-07-25T03:22:25;19.90;;;18.55;;
25137;SDS011;13112;50.986;4.354;2022-07-25T03:24:51;19.92;;;18.63;;
25137;SDS011;13112;50.986;4.354;2022-07-25T03:27:17;20.48;;;19.08;;
25137;SDS011;13112;50.986;4.354;2022-07-25T03:29:43;19.95;;;18.23;;
25137;SDS011;13112;50.986;4.354;2022-07-25T03:32:09;19.27;;;17.75;;
25137;SDS011;13112;50.986;4.354;2022-07-25T03:34:35;20.52;;;18.70;;
25137;SDS011;13112;50.986;4.354;2022-07-25T03:37:01;20.02;;;18.63;;
25137;SDS011;13112;50.986;4.354;2022-07-25T03:39:27;21.55;;;19.48;;
25137;SDS011;13112;50.986;4.354;2022-07-25T03:41:53;20.33;;;18.65;;
25137;SDS011;13112;50.986;4.354;2022-07-25T03:44:19;20.10;;;18.50;;
25137;SDS011;13112;50.986;4.354;2022-07-25T03:46:46;19.77;;;18.17;;
25137;SDS011;13112;50.986;4.354;2022-07-25T03:49:12;19.85;;;18.15;;
25137;SDS011;13112;50.986;4.354;2022-07-25T03:51:37;19.45;;;18.05;;
25137;SDS011;13112;50.986;4.354;2022-07-25T03:54:03;19.67;;;17.88;;
25137;SDS011;13112;50.986;4.354;2022-07-25T03:56:37;19.58;;;17.85;;
25137;SDS011;13112;50.986;4.354;2022-07-25T03:59:05;18.95;;;17.48;;
25137;SDS011;13112;50.986;4.354;2022-07-25T04:01:31;19.58;;;18.17;;
25137;SDS011;13112;50.986;4.354;2022-07-25T04:03:57;19.35;;;17.77;;
25137;SDS011;13112;50.986;4.354;2022-07-25T04:06:24;18.85;;;17.45;;
25137;SDS011;13112;50.986;4.354;2022-07-25T04:08:50;18.42;;;17.00;;
25137;SDS011;13112;50.986;4.354;2022-07-25T04:11:17;18.52;;;17.17;;
25137;SDS011;13112;50.986;4.354;2022-07-25T04:13:43;18.15;;;16.90;;
25137;SDS011;13112;50.986;4.354;2022-07-25T04:16:09;17.40;;;16.10;;
25137;SDS011;13112;50.986;4.354;2022-07-25T04:18:34;17.52;;;16.40;;
25137;SDS011;13112;50.986;4.354;2022-07-25T04:21:00;18.95;;;17.35;;
25137;SDS011;13112;50.986;4.354;2022-07-25T04:23:27;19.17;;;17.35;;
25137;SDS011;13112;50.986;4.354;2022-07-25T04:25:54;18.45;;;16.42;;
25137;SDS011;13112;50.986;4.354;2022-07-25T04:28:20;16.45;;;15.25;;
25137;SDS011;13112;50.986;4.354;2022-07-25T04:30:46;16.15;;;15.07;;
25137;SDS011;13112;50.986;4.354;2022-07-25T04:33:12;17.35;;;15.88;;
25137;SDS011;13112;50.986;4.354;2022-07-25T04:35:38;16.38;;;14.85;;
25137;SDS011;13112;50.986;4.354;2022-07-25T04:38:04;16.38;;;15.07;;
25137;SDS011;13112;50.986;4.354;2022-07-25T04:40:29;16.25;;;14.95;;
25137;SDS011;13112;50.986;4.354;2022-07-25T04:42:55;16.60;;;15.50;;
25137;SDS011;13112;50.986;4.354;2022-07-25T04:45:21;16.35;;;15.13;;
25137;SDS011;13112;50.986;4.354;2022-07-25T04:47:47;16.35;;;15.25;;
25137;SDS011;13112;50.986;4.354;2022-07-25T04:50:14;15.90;;;14.70;;
25137;SDS011;13112;50.986;4.354;2022-07-25T04:52:41;16.40;;;15.05;;
25137;SDS011;13112;50.986;4.354;2022-07-25T04:55:07;16.27;;;14.80;;
25137;SDS011;13112;50.986;4.354;2022-07-25T04:57:33;15.40;;;14.40;;
25137;SDS011;13112;50.986;4.354;2022-07-25T04:59:59;15.85;;;14.75;;
25137;SDS011;13112;50.986;4.354;2022-07-25T05:02:24;15.07;;;14.18;;
25137;SDS011;13112;50.986;4.354;2022-07-25T05:04:50;15.82;;;14.73;;
25137;SDS011;13112;50.986;4.354;2022-07-25T05:07:16;16.08;;;14.68;;
25137;SDS011;13112;50.986;4.354;2022-07-25T05:09:42;15.82;;;14.63;;
25137;SDS011;13112;50.986;4.354;2022-07-25T05:12:08;15.90;;;14.73;;
25137;SDS011;13112;50.986;4.354;2022-07-25T05:14:34;15.73;;;14.63;;
25137;SDS011;13112;50.986;4.354;2022-07-25T05:16:59;16.20;;;15.00;;
25137;SDS011;13112;50.986;4.354;2022-07-25T05:19:25;16.60;;;15.38;;
25137;SDS011;13112;50.986;4.354;2022-07-25T05:21:51;15.93;;;14.68;;
25137;SDS011;13112;50.986;4.354;2022-07-25T05:24:17;15.88;;;14.75;;
25137;SDS011;13112;50.986;4.354;2022-07-25T05:26:42;16.52;;;15.40;;
25137;SDS011;13112;50.986;4.354;2022-07-25T05:29:08;16.20;;;14.80;;
25137;SDS011;13112;50.986;4.354;2022-07-25T05:31:34;15.77;;;14.73;;
25137;SDS011;13112;50.986;4.354;2022-07-25T05:34:00;15.80;;;14.73;;
25137;SDS011;13112;50.986;4.354;2022-07-25T05:36:26;16.27;;;14.95;;
25137;SDS011;13112;50.986;4.354;2022-07-25T05:38:52;15.63;;;14.52;;
25137;SDS011;13112;50.986;4.354;2022-07-25T05:41:18;15.73;;;14.38;;
25137;SDS011;13112;50.986;4.354;2022-07-25T05:43:44;15.43;;;13.85;;
25137;SDS011;13112;50.986;4.354;2022-07-25T05:46:11;14.50;;;13.50;;
25137;SDS011;13112;50.986;4.354;2022-07-25T05:48:37;14.90;;;13.80;;
25137;SDS011;13112;50.986;4.354;2022-07-25T05:51:03;15.50;;;14.20;;
25137;SDS011;13112;50.986;4.354;2022-07-25T05:53:29;15.35;;;14.15;;
25137;SDS011;13112;50.986;4.354;2022-07-25T05:55:54;15.30;;;14.00;;
25137;SDS011;13112;50.986;4.354;2022-07-25T05:58:20;15.13;;;13.70;;
25137;SDS011;13112;50.986;4.354;2022-07-25T06:00:46;15.73;;;14.13;;
25137;SDS011;13112;50.986;4.354;2022-07-25T06:03:11;14.45;;;12.98;;
25137;SDS011;13112;50.986;4.354;2022-07-25T06:05:37;14.40;;;13.40;;
25137;SDS011;13112;50.986;4.354;2022-07-25T06:08:03;14.30;;;13.20;;
25137;SDS011;13112;50.986;4.354;2022-07-25T06:10:29;15.07;;;13.57;;
25137;SDS011;13112;50.986;4.354;2022-07-25T06:12:54;14.43;;;13.40;;
25137;SDS011;13112;50.986;4.354;2022-07-25T06:15:20;15.00;;;13.45;;
25137;SDS011;13112;50.986;4.354;2022-07-25T06:17:45;14.30;;;13.05;;
25137;SDS011;13112;50.986;4.354;2022-07-25T06:20:11;14.85;;;13.38;;
25137;SDS011;13112;50.986;4.354;2022-07-25T06:22:37;14.80;;;13.40;;
25137;SDS011;13112;50.986;4.354;2022-07-25T06:25:04;15.10;;;14.00;;
25137;SDS011;13112;50.986;4.354;2022-07-25T06:27:30;15.88;;;14.35;;
25137;SDS011;13112;50.986;4.354;2022-07-25T06:29:56;14.65;;;13.32;;
25137;SDS011;13112;50.986;4.354;2022-07-25T06:32:22;15.45;;;14.13;;
25137;SDS011;13112;50.986;4.354;2022-07-25T06:34:47;15.18;;;13.88;;
25137;SDS011;13112;50.986;4.354;2022-07-25T06:37:13;15.02;;;13.82;;
25137;SDS011;13112;50.986;4.354;2022-07-25T06:39:39;14.77;;;13.48;;
25137;SDS011;13112;50.986;4.354;2022-07-25T06:42:05;14.75;;;13.55;;
25137;SDS011;13112;50.986;4.354;2022-07-25T06:44:31;15.45;;;13.93;;
25137;SDS011;13112;50.986;4.354;2022-07-25T06:46:58;15.00;;;13.63;;
25137;SDS011;13112;50.986;4.354;2022-07-25T06:49:25;15.23;;;13.95;;
25137;SDS011;13112;50.986;4.354;2022-07-25T06:51:50;15.48;;;14.18;;
25137;SDS011;13112;50.986;4.354;2022-07-25T06:54:16;14.38;;;13.07;;
25137;SDS011;13112;50.986;4.354;2022-07-25T06:56:42;14.82;;;13.82;;
25137;SDS011;13112;50.986;4.354;2022-07-25T06:59:08;14.80;;;13.70;;
25137;SDS011;13112;50.986;4.354;2022-07-25T07:01:34;15.10;;;13.60;;
25137;SDS011;13112;50.986;4.354;2022-07-25T07:04:00;14.68;;;13.50;;
25137;SDS011;13112;50.986;4.354;2022-07-25T07:06:26;14.20;;;13.20;;
25137;SDS011;13112;50.986;4.354;2022-07-25T07:08:51;14.77;;;13.50;;
25137;SDS011;13112;50.986;4.354;2022-07-25T07:11:17;14.20;;;13.20;;
25137;SDS011;13112;50.986;4.354;2022-07-25T07:13:43;15.43;;;14.02;;
25137;SDS011;13112;50.986;4.354;2022-07-25T07:16:08;15.40;;;14.10;;
25137;SDS011;13112;50.986;4.354;2022-07-25T07:18:34;13.98;;;12.77;;
25137;SDS011;13112;50.986;4.354;2022-07-25T07:21:01;13.55;;;12.48;;
25137;SDS011;13112;50.986;4.354;2022-07-25T07:23:27;15.02;;;13.73;;
25137;SDS011;13112;50.986;4.354;2022-07-25T07:25:52;15.27;;;14.18;;
25137;SDS011;13112;50.986;4.354;2022-07-25T07:28:18;15.38;;;14.05;;
25137;SDS011;13112;50.986;4.354;2022-07-25T07:30:44;14.13;;;13.13;;
25137;SDS011;13112;50.986;4.354;2022-07-25T07:33:10;13.93;;;12.90;;
25137;SDS011;13112;50.986;4.354;2022-07-25T07:35:36;14.05;;;12.90;;
25137;SDS011;13112;50.986;4.354;2022-07-25T07:38:02;14.10;;;12.70;;
25137;SDS011;13112;50.986;4.354;2022-07-25T07:40:27;14.25;;;13.15;;
25137;SDS011;13112;50.986;4.354;2022-07-25T07:42:53;14.10;;;12.85;;
25137;SDS011;13112;50.986;4.354;2022-07-25T07:45:22;13.88;;;12.77;;
25137;SDS011;13112;50.986;4.354;2022-07-25T07:47:50;14.07;;;13.18;;
25137;SDS011;13112;50.986;4.354;2022-07-25T07:50:18;13.80;;;12.90;;
25137;SDS011;13112;50.986;4.354;2022-07-25T07:52:46;14.88;;;13.60;;
25137;SDS011;13112;50.986;4.354;2022-07-25T07:55:12;13.80;;;13.00;;
25137;SDS011;13112;50.986;4.354;2022-07-25T07:57:57;14.20;;;13.05;;
25137;SDS011;13112;50.986;4.354;2022-07-25T08:00:25;14.45;;;13.00;;
25137;SDS011;13112;50.986;4.354;2022-07-25T08:02:54;14.20;;;12.95;;
25137;SDS011;13112;50.986;4.354;2022-07-25T08:07:47;13.82;;;12.93;;
25137;SDS011;13112;50.986;4.354;2022-07-25T08:10:15;14.25;;;13.30;;
25137;SDS011;13112;50.986;4.354;2022-07-25T08:12:45;14.35;;;13.18;;
25137;SDS011;13112;50.986;4.354;2022-07-25T08:15:10;13.52;;;12.52;;
25137;SDS011;13112;50.986;4.354;2022-07-25T08:17:36;14.65;;;13.25;;
25137;SDS011;13112;50.986;4.354;2022-07-25T08:20:02;14.38;;;13.45;;
25137;SDS011;13112;50.986;4.354;2022-07-25T08:22:42;13.98;;;12.70;;
25137;SDS011;13112;50.986;4.354;2022-07-25T08:25:13;13.05;;;12.15;;
25137;SDS011;13112;50.986;4.354;2022-07-25T08:27:40;13.60;;;12.80;;
25137;SDS011;13112;50.986;4.354;2022-07-25T08:30:07;13.57;;;12.68;;
25137;SDS011;13112;50.986;4.354;2022-07-25T08:32:33;14.00;;;13.00;;
25137;SDS011;13112;50.986;4.354;2022-07-25T08:35:09;13.32;;;12.38;;
25137;SDS011;13112;50.986;4.354;2022-07-25T08:37:35;14.05;;;12.70;;
25137;SDS011;13112;50.986;4.354;2022-07-25T08:40:01;17.02;;;12.82;;
25137;SDS011;13112;50.986;4.354;2022-07-25T08:42:26;13.30;;;12.20;;
25137;SDS011;13112;50.986;4.354;2022-07-25T08:44:57;13.30;;;12.20;;
25137;SDS011;13112;50.986;4.354;2022-07-25T08:47:24;13.30;;;12.40;;
25137;SDS011;13112;50.986;4.354;2022-07-25T08:49:50;13.73;;;12.45;;
25137;SDS011;13112;50.986;4.354;2022-07-25T08:52:16;13.25;;;12.30;;
25137;SDS011;13112;50.986;4.354;2022-07-25T08:54:44;14.07;;;12.60;;
25137;SDS011;13112;50.986;4.354;2022-07-25T08:57:12;13.15;;;12.18;;
25137;SDS011;13112;50.986;4.354;2022-07-25T08:59:37;13.23;;;12.23;;
25137;SDS011;13112;50.986;4.354;2022-07-25T09:02:03;13.18;;;12.15;;
25137;SDS011;13112;50.986;4.354;2022-07-25T09:04:34;13.02;;;12.18;;
25137;SDS011;13112;50.986;4.354;2022-07-25T09:07:01;12.70;;;11.88;;
25137;SDS011;13112;50.986;4.354;2022-07-25T09:09:29;13.77;;;12.38;;
25137;SDS011;13112;50.986;4.354;2022-07-25T09:11:56;12.18;;;11.32;;
25137;SDS011;13112;50.986;4.354;2022-07-25T09:14:23;13.00;;;12.10;;
25137;SDS011;13112;50.986;4.354;2022-07-25T09:16:49;13.15;;;12.25;;
25137;SDS011;13112;50.986;4.354;2022-07-25T09:19:16;13.48;;;12.57;;
25137;SDS011;13112;50.986;4.354;2022-07-25T09:21:44;13.32;;;12.38;;
25137;SDS011;13112;50.986;4.354;2022-07-25T09:24:21;13.70;;;12.60;;
25137;SDS011;13112;50.986;4.354;2022-07-25T09:29:32;14.43;;;13.43;;
25137;SDS011;13112;50.986;4.354;2022-07-25T09:31:58;14.32;;;13.43;;
25137;SDS011;13112;50.986;4.354;2022-07-25T09:36:58;13.80;;;12.70;;
25137;SDS011;13112;50.986;4.354;2022-07-25T09:39:42;13.25;;;12.40;;
25137;SDS011;13112;50.986;4.354;2022-07-25T09:42:26;13.90;;;12.70;;
25137;SDS011;13112;50.986;4.354;2022-07-25T09:44:57;13.80;;;12.80;;
25137;SDS011;13112;50.986;4.354;2022-07-25T09:47:28;13.52;;;12.63;;
25137;SDS011;13112;50.986;4.354;2022-07-25T09:49:55;14.52;;;13.43;;
25137;SDS011;13112;50.986;4.354;2022-07-25T09:52:21;13.40;;;12.27;;
25137;SDS011;13112;50.986;4.354;2022-07-25T09:54:47;13.82;;;12.82;;
25137;SDS011;13112;50.986;4.354;2022-07-25T09:57:13;14.10;;;13.00;;
25137;SDS011;13112;50.986;4.354;2022-07-25T09:59:39;12.98;;;12.05;;
25137;SDS011;13112;50.986;4.354;2022-07-25T10:02:09;13.45;;;12.40;;
25137;SDS011;13112;50.986;4.354;2022-07-25T10:04:48;13.13;;;12.20;;
25137;SDS011;13112;50.986;4.354;2022-07-25T10:07:48;12.98;;;12.07;;
25137;SDS011;13112;50.986;4.354;2022-07-25T10:10:21;13.27;;;12.25;;
25137;SDS011;13112;50.986;4.354;2022-07-25T10:18:09;13.70;;;12.65;;
25137;SDS011;13112;50.986;4.354;2022-07-25T10:20:36;14.02;;;13.13;;
25137;SDS011;13112;50.986;4.354;2022-07-25T10:23:02;13.88;;;12.77;;
25137;SDS011;13112;50.986;4.354;2022-07-25T10:25:28;13.55;;;12.32;;
25137;SDS011;13112;50.986;4.354;2022-07-25T10:27:56;13.40;;;12.20;;
25137;SDS011;13112;50.986;4.354;2022-07-25T10:30:26;13.35;;;12.45;;
25137;SDS011;13112;50.986;4.354;2022-07-25T10:33:01;14.02;;;12.93;;
25137;SDS011;13112;50.986;4.354;2022-07-25T10:35:42;13.68;;;12.55;;
25137;SDS011;13112;50.986;4.354;2022-07-25T10:38:08;14.40;;;13.30;;
25137;SDS011;13112;50.986;4.354;2022-07-25T10:40:41;13.32;;;12.43;;
25137;SDS011;13112;50.986;4.354;2022-07-25T10:43:12;14.35;;;12.80;;
25137;SDS011;13112;50.986;4.354;2022-07-25T10:45:42;13.20;;;12.27;;
25137;SDS011;13112;50.986;4.354;2022-07-25T10:48:20;13.93;;;12.77;;
25137;SDS011;13112;50.986;4.354;2022-07-25T10:53:36;12.95;;;11.98;;
25137;SDS011;13112;50.986;4.354;2022-07-25T10:58:41;14.35;;;13.25;;
25137;SDS011;13112;50.986;4.354;2022-07-25T11:01:13;15.23;;;13.00;;
25137;SDS011;13112;50.986;4.354;2022-07-25T11:03:44;14.40;;;13.00;;
25137;SDS011;13112;50.986;4.354;2022-07-25T11:06:13;14.20;;;13.00;;
25137;SDS011;13112;50.986;4.354;2022-07-25T11:08:40;14.80;;;13.27;;
25137;SDS011;13112;50.986;4.354;2022-07-25T11:11:07;14.27;;;12.98;;
25137;SDS011;13112;50.986;4.354;2022-07-25T11:13:40;14.05;;;12.95;;
25137;SDS011;13112;50.986;4.354;2022-07-25T11:16:07;14.25;;;13.10;;
25137;SDS011;13112;50.986;4.354;2022-07-25T11:18:38;13.68;;;12.55;;
25137;SDS011;13112;50.986;4.354;2022-07-25T11:21:06;13.52;;;12.50;;
25137;SDS011;13112;50.986;4.354;2022-07-25T11:23:33;14.60;;;13.40;;
25137;SDS011;13112;50.986;4.354;2022-07-25T11:26:03;14.65;;;13.48;;
25137;SDS011;13112;50.986;4.354;2022-07-25T11:28:37;15.20;;;13.73;;
25137;SDS011;13112;50.986;4.354;2022-07-25T11:31:11;14.27;;;13.10;;
25137;SDS011;13112;50.986;4.354;2022-07-25T11:33:39;14.40;;;13.07;;
25137;SDS011;13112;50.986;4.354;2022-07-25T11:36:06;14.20;;;13.00;;
25137;SDS011;13112;50.986;4.354;2022-07-25T11:38:34;16.63;;;13.45;;
25137;SDS011;13112;50.986;4.354;2022-07-25T11:41:01;15.10;;;13.65;;
25137;SDS011;13112;50.986;4.354;2022-07-25T11:43:27;13.85;;;12.60;;
25137;SDS011;13112;50.986;4.354;2022-07-25T11:46:00;14.50;;;13.10;;
25137;SDS011;13112;50.986;4.354;2022-07-25T11:48:28;13.85;;;12.85;;
25137;SDS011;13112;50.986;4.354;2022-07-25T11:50:56;14.18;;;12.77;;
25137;SDS011;13112;50.986;4.354;2022-07-25T11:53:22;14.15;;;12.95;;
25137;SDS011;13112;50.986;4.354;2022-07-25T11:55:49;13.93;;;12.70;;
25137;SDS011;13112;50.986;4.354;2022-07-25T11:58:16;14.05;;;12.65;;
25137;SDS011;13112;50.986;4.354;2022-07-25T12:00:43;14.73;;;13.52;;
25137;SDS011;13112;50.986;4.354;2022-07-25T12:03:12;13.60;;;12.38;;
25137;SDS011;13112;50.986;4.354;2022-07-25T12:05:39;12.65;;;11.85;;
25137;SDS011;13112;50.986;4.354;2022-07-25T12:08:12;13.70;;;12.70;;
25137;SDS011;13112;50.986;4.354;2022-07-25T12:10:42;14.10;;;13.00;;
25137;SDS011;13112;50.986;4.354;2022-07-25T12:13:20;13.80;;;12.60;;
25137;SDS011;13112;50.986;4.354;2022-07-25T12:15:57;13.43;;;12.20;;
25137;SDS011;13112;50.986;4.354;2022-07-25T12:18:23;13.63;;;12.65;;
25137;SDS011;13112;50.986;4.354;2022-07-25T12:20:49;13.98;;;12.70;;
25137;SDS011;13112;50.986;4.354;2022-07-25T12:23:16;13.68;;;12.43;;
25137;SDS011;13112;50.986;4.354;2022-07-25T12:25:43;14.60;;;13.30;;
25137;SDS011;13112;50.986;4.354;2022-07-25T12:28:10;14.50;;;13.30;;
25137;SDS011;13112;50.986;4.354;2022-07-25T12:30:37;14.93;;;13.68;;
25137;SDS011;13112;50.986;4.354;2022-07-25T12:33:04;14.45;;;13.10;;
25137;SDS011;13112;50.986;4.354;2022-07-25T12:35:30;14.57;;;13.27;;
25137;SDS011;13112;50.986;4.354;2022-07-25T12:37:56;13.13;;;12.10;;
25137;SDS011;13112;50.986;4.354;2022-07-25T12:40:22;14.05;;;12.93;;
25137;SDS011;13112;50.986;4.354;2022-07-25T12:42:48;13.90;;;12.90;;
25137;SDS011;13112;50.986;4.354;2022-07-25T12:45:14;14.20;;;13.10;;
25137;SDS011;13112;50.986;4.354;2022-07-25T12:47:42;14.13;;;13.00;;
25137;SDS011;13112;50.986;4.354;2022-07-25T12:50:09;13.43;;;12.00;;
25137;SDS011;13112;50.986;4.354;2022-07-25T12:52:35;13.63;;;12.45;;
25137;SDS011;13112;50.986;4.354;2022-07-25T12:55:02;12.85;;;11.85;;
25137;SDS011;13112;50.986;4.354;2022-07-25T12:57:29;13.63;;;12.50;;
25137;SDS011;13112;50.986;4.354;2022-07-25T12:59:54;13.18;;;12.00;;
25137;SDS011;13112;50.986;4.354;2022-07-25T13:02:21;13.80;;;12.50;;
25137;SDS011;13112;50.986;4.354;2022-07-25T13:04:46;12.63;;;11.70;;
25137;SDS011;13112;50.986;4.354;2022-07-25T13:07:13;12.75;;;11.75;;
25137;SDS011;13112;50.986;4.354;2022-07-25T13:09:40;14.13;;;12.85;;
25137;SDS011;13112;50.986;4.354;2022-07-25T13:12:06;13.75;;;12.75;;
25137;SDS011;13112;50.986;4.354;2022-07-25T13:14:32;13.50;;;12.40;;
25137;SDS011;13112;50.986;4.354;2022-07-25T13:16:57;18.17;;;13.32;;
25137;SDS011;13112;50.986;4.354;2022-07-25T13:19:23;14.40;;;12.10;;
25137;SDS011;13112;50.986;4.354;2022-07-25T13:21:49;13.90;;;12.70;;
25137;SDS011;13112;50.986;4.354;2022-07-25T13:24:15;15.65;;;12.68;;
25137;SDS011;13112;50.986;4.354;2022-07-25T13:26:40;13.90;;;12.50;;
25137;SDS011;13112;50.986;4.354;2022-07-25T13:29:06;13.35;;;12.25;;
25137;SDS011;13112;50.986;4.354;2022-07-25T13:31:33;12.52;;;11.63;;
25137;SDS011;13112;50.986;4.354;2022-07-25T13:33:59;13.55;;;12.20;;
25137;SDS011;13112;50.986;4.354;2022-07-25T13:36:26;12.73;;;11.80;;
25137;SDS011;13112;50.986;4.354;2022-07-25T13:38:51;12.50;;;11.40;;
25137;SDS011;13112;50.986;4.354;2022-07-25T13:41:17;14.52;;;13.13;;
25137;SDS011;13112;50.986;4.354;2022-07-25T13:43:43;12.32;;;11.40;;
25137;SDS011;13112;50.986;4.354;2022-07-25T13:46:09;13.32;;;11.90;;
25137;SDS011;13112;50.986;4.354;2022-07-25T13:48:35;12.88;;;11.75;;
25137;SDS011;13112;50.986;4.354;2022-07-25T13:51:01;13.15;;;12.07;;
25137;SDS011;13112;50.986;4.354;2022-07-25T13:53:26;13.15;;;12.05;;
25137;SDS011;13112;50.986;4.354;2022-07-25T13:55:52;12.95;;;11.95;;
25137;SDS011;13112;50.986;4.354;2022-07-25T13:58:18;12.35;;;11.55;;
25137;SDS011;13112;50.986;4.354;2022-07-25T14:00:44;13.15;;;12.15;;
25137;SDS011;13112;50.986;4.354;2022-07-25T14:03:09;13.38;;;12.25;;
25137;SDS011;13112;50.986;4.354;2022-07-25T14:05:37;13.20;;;12.25;;
25137;SDS011;13112;50.986;4.354;2022-07-25T14:08:03;12.85;;;11.68;;
25137;SDS011;13112;50.986;4.354;2022-07-25T14:10:29;13.00;;;12.00;;
25137;SDS011;13112;50.986;4.354;2022-07-25T14:12:55;12.40;;;11.60;;
25137;SDS011;13112;50.986;4.354;2022-07-25T14:15:21;12.93;;;11.90;;
25137;SDS011;13112;50.986;4.354;2022-07-25T14:17:46;12.38;;;11.48;;
25137;SDS011;13112;50.986;4.354;2022-07-25T14:20:12;12.35;;;11.48;;
25137;SDS011;13112;50.986;4.354;2022-07-25T14:22:38;14.10;;;13.00;;
25137;SDS011;13112;50.986;4.354;2022-07-25T14:25:06;13.57;;;12.57;;
25137;SDS011;13112;50.986;4.354;2022-07-25T14:27:32;13.48;;;12.48;;
25137;SDS011;13112;50.986;4.354;2022-07-25T14:29:58;13.45;;;12.40;;
25137;SDS011;13112;50.986;4.354;2022-07-25T14:32:24;12.32;;;11.30;;
25137;SDS011;13112;50.986;4.354;2022-07-25T14:34:50;14.35;;;13.15;;
25137;SDS011;13112;50.986;4.354;2022-07-25T14:37:17;12.43;;;11.40;;